createdAt,value
2022-11-18T00:01:04.608Z,62.25
2022-11-18T00:03:51.147Z,58.60
2022-11-18T00:06:33.360Z,57.28
2022-11-18T00:09:24.442Z,59.05
2022-11-18T00:12:22.349Z,55.28
2022-11-18T00:15:11.111Z,48.67
2022-11-18T00:17:55.819Z,50.10
2022-11-18T00:20:39.499Z,50.53
2022-11-18T00:23:27.402Z,44.00
2022-11-18T00:26:17.087Z,45.85
2022-11-18T00:28:55.449Z,43.55
2022-11-18T00:31:48.440Z,47.50
2022-11-18T00:34:33.722Z,47.83
2022-11-18T00:37:17.333Z,42.28
2022-11-18T00:40:06.007Z,39.63
2022-11-18T00:43:00.004Z,43.92
2022-11-18T00:45:39.765Z,44.60
2022-11-18T00:48:22.963Z,41.20
2022-11-18T00:51:15.031Z,43.15
2022-11-18T00:54:01.219Z,45.85
2022-11-18T00:56:54.225Z,40.78
2022-11-18T00:59:38.496Z,42.05
2022-11-18T01:02:26.212Z,42.55
2022-11-18T01:05:09.648Z,42.90
2022-11-18T01:07:56.196Z,43.15
2022-11-18T01:10:47.454Z,46.33
2022-11-18T01:13:35.377Z,52.50
2022-11-18T01:16:29.691Z,50.60
2022-11-18T01:19:14.007Z,46.70
2022-11-18T01:24:49.210Z,50.22
2022-11-18T01:27:33.423Z,58.13
2022-11-18T01:30:22.619Z,57.40
2022-11-18T01:33:10.031Z,60.45
2022-11-18T01:36:10.127Z,56.55
2022-11-18T01:38:55.267Z,67.20
2022-11-18T01:41:46.417Z,63.15
2022-11-18T01:44:53.240Z,61.75
2022-11-18T01:47:41.553Z,62.22
2022-11-18T01:50:28.559Z,62.30
2022-11-18T01:53:15.524Z,59.05
2022-11-18T01:55:57.336Z,54.40
2022-11-18T01:58:50.117Z,54.28
2022-11-18T02:01:36.612Z,58.63
2022-11-18T02:04:33.769Z,57.90
2022-11-18T02:07:09.984Z,58.85
2022-11-18T02:09:54.555Z,57.83
2022-11-18T02:12:36.490Z,59.08
2022-11-18T02:15:25.220Z,67.18
2022-11-18T02:18:32.002Z,63.40
2022-11-18T02:22:04.117Z,63.63
2022-11-18T02:25:14.597Z,60.47
2022-11-18T02:28:19.478Z,52.35
2022-11-18T02:31:22.259Z,70.15
2022-11-18T02:34:15.525Z,59.13
2022-11-18T02:37:29.166Z,45.23
2022-11-18T02:40:17.707Z,63.83
2022-11-18T02:43:23.497Z,61.42
2022-11-18T02:46:11.490Z,56.35
2022-11-18T02:48:56.038Z,68.32
2022-11-18T02:51:31.981Z,65.20
2022-11-18T02:54:20.518Z,61.97
2022-11-18T02:56:59.366Z,71.28
2022-11-18T02:59:47.128Z,65.95
2022-11-18T03:02:47.742Z,59.72
2022-11-18T03:05:52.007Z,66.88
2022-11-18T03:08:51.037Z,61.70
2022-11-18T03:12:02.404Z,59.60
2022-11-18T03:15:06.662Z,64.45
2022-11-18T03:18:13.776Z,60.83
2022-11-18T03:21:06.414Z,62.63
2022-11-18T03:23:50.870Z,52.53
2022-11-18T03:26:36.562Z,60.15
2022-11-18T03:29:18.496Z,56.13
2022-11-18T03:32:06.527Z,49.53
2022-11-18T03:35:01.348Z,52.25
2022-11-18T03:37:41.355Z,52.90
2022-11-18T03:40:44.668Z,59.55
2022-11-18T03:43:35.560Z,59.15
2022-11-18T03:46:49.838Z,51.10
2022-11-18T03:49:47.475Z,56.00
2022-11-18T03:52:48.262Z,51.35
2022-11-18T03:55:32.184Z,55.83
2022-11-18T03:58:33.921Z,49.28
2022-11-18T04:01:22.826Z,53.35
2022-11-18T04:04:12.430Z,52.08
2022-11-18T04:07:18.200Z,50.97
2022-11-18T04:10:14.853Z,40.72
2022-11-18T04:13:16.372Z,48.42
2022-11-18T04:16:10.738Z,48.70
2022-11-18T04:19:06.184Z,50.05
2022-11-18T04:21:53.063Z,47.17
2022-11-18T04:24:37.838Z,60.92
2022-11-18T04:27:19.037Z,52.40
2022-11-18T04:30:11.292Z,56.35
2022-11-18T04:32:58.587Z,60.78
2022-11-18T04:35:36.732Z,56.47
2022-11-18T04:38:23.704Z,56.58
2022-11-18T04:41:02.760Z,50.42
2022-11-18T04:43:48.942Z,53.05
2022-11-18T04:46:38.414Z,48.60
2022-11-18T04:49:25.633Z,52.15
2022-11-18T04:52:12.486Z,46.58
2022-11-18T04:54:56.409Z,50.78
2022-11-18T04:57:49.476Z,47.67
2022-11-18T05:00:25.404Z,50.85
2022-11-18T05:03:13.587Z,46.50
2022-11-18T05:05:59.364Z,50.28
2022-11-18T05:08:42.981Z,48.33
2022-11-18T05:11:41.452Z,52.95
2022-11-18T05:14:34.367Z,44.60
2022-11-18T05:17:11.819Z,46.92
2022-11-18T05:19:58.540Z,49.60
2022-11-18T05:25:26.022Z,48.20
2022-11-18T05:28:14.546Z,48.57
2022-11-18T05:31:15.868Z,50.05
2022-11-18T05:33:56.907Z,48.03
2022-11-18T05:36:40.521Z,49.13
2022-11-18T05:39:26.018Z,47.72
2022-11-18T05:42:24.703Z,44.28
2022-11-18T05:45:11.791Z,51.03
2022-11-18T05:48:08.061Z,45.35
2022-11-18T05:50:57.088Z,51.20
2022-11-18T05:53:38.582Z,48.22
2022-11-18T05:56:32.553Z,50.17
2022-11-18T05:59:10.474Z,49.78
2022-11-18T06:02:07.033Z,45.55
2022-11-18T06:04:45.370Z,44.55
2022-11-18T06:07:44.674Z,46.67
2022-11-18T06:10:42.321Z,47.65
2022-11-18T06:13:37.888Z,48.05
2022-11-18T06:16:18.805Z,49.05
2022-11-18T06:19:02.062Z,46.55
2022-11-18T06:21:37.170Z,49.53
2022-11-18T06:24:30.408Z,50.88
2022-11-18T06:27:05.956Z,52.33
2022-11-18T06:29:49.995Z,44.58
2022-11-18T06:32:44.415Z,45.15
2022-11-18T06:35:34.146Z,44.92
2022-11-18T06:38:25.592Z,41.38
2022-11-18T06:41:11.136Z,39.13
2022-11-18T06:43:58.031Z,46.30
2022-11-18T06:46:58.265Z,46.50
2022-11-18T06:49:41.405Z,46.13
2022-11-18T06:52:31.616Z,53.78
2022-11-18T06:55:15.578Z,52.25
2022-11-18T06:57:57.107Z,50.92
2022-11-18T07:00:57.436Z,48.10
2022-11-18T07:03:38.700Z,47.50
2022-11-18T07:06:40.890Z,40.17
2022-11-18T07:09:31.423Z,52.72
2022-11-18T07:12:13.212Z,51.58
2022-11-18T07:15:01.766Z,47.92
2022-11-18T07:17:51.453Z,55.17
2022-11-18T07:20:39.491Z,52.22
2022-11-18T07:23:23.151Z,49.47
2022-11-18T07:26:12.301Z,46.03
2022-11-18T07:29:02.866Z,41.78
2022-11-18T07:31:57.851Z,48.75
2022-11-18T07:34:46.070Z,50.63
2022-11-18T07:37:41.281Z,44.47
2022-11-18T07:40:22.451Z,55.30
2022-11-18T07:43:16.993Z,51.55
2022-11-18T07:46:20.911Z,54.47
2022-11-18T07:49:09.995Z,51.35
2022-11-18T07:51:51.635Z,58.58
2022-11-18T07:54:44.307Z,52.05
2022-11-18T07:57:30.123Z,49.38
2022-11-18T08:00:20.726Z,54.58
2022-11-18T08:03:11.293Z,49.13
2022-11-18T08:05:55.073Z,49.75
2022-11-18T08:08:41.296Z,49.72
2022-11-18T08:11:40.639Z,56.25
2022-11-18T08:14:26.555Z,55.30
2022-11-18T08:17:08.467Z,51.17
2022-11-18T08:19:52.906Z,45.58
2022-11-18T08:22:44.831Z,46.88
2022-11-18T08:25:28.671Z,46.00
2022-11-18T08:28:30.979Z,46.90
2022-11-18T08:31:25.497Z,49.65
2022-11-18T08:34:14.146Z,53.78
2022-11-18T08:36:54.914Z,49.92
2022-11-18T08:39:36.334Z,47.95
2022-11-18T08:42:29.909Z,46.50
2022-11-18T08:48:11.863Z,43.00
2022-11-18T08:50:55.954Z,45.08
2022-11-18T08:53:43.187Z,43.50
2022-11-18T08:56:32.811Z,54.17
2022-11-18T08:59:28.326Z,47.60
2022-11-18T09:02:25.048Z,50.10
2022-11-18T09:05:57.389Z,45.35
2022-11-18T09:09:06.318Z,44.55
2022-11-18T09:12:09.490Z,49.60
2022-11-18T09:15:19.945Z,47.58
2022-11-18T09:18:28.411Z,44.67
2022-11-18T09:21:15.753Z,54.35
2022-11-18T09:23:59.132Z,53.38
2022-11-18T09:26:40.478Z,54.55
2022-11-18T09:29:26.590Z,55.97
2022-11-18T09:32:14.973Z,59.50
2022-11-18T09:35:11.927Z,61.75
2022-11-18T09:38:09.682Z,65.05
2022-11-18T09:41:12.958Z,61.05
2022-11-18T09:44:36.185Z,54.15
2022-11-18T09:47:26.278Z,49.92
2022-11-18T09:53:57.629Z,49.30
2022-11-18T09:56:56.343Z,43.22
2022-11-18T09:59:42.063Z,45.72
2022-11-18T10:02:54.808Z,50.75
2022-11-18T10:06:05.088Z,47.08
2022-11-18T10:09:46.924Z,49.50
2022-11-18T10:13:06.086Z,51.42
2022-11-18T10:16:35.582Z,47.17
2022-11-18T10:22:00.457Z,56.70
2022-11-18T10:24:56.416Z,60.63
2022-11-18T10:27:55.576Z,60.33
2022-11-18T10:30:38.114Z,54.33
2022-11-18T10:33:43.759Z,50.35
2022-11-18T10:36:58.529Z,56.55
2022-11-18T10:42:32.495Z,46.10
2022-11-18T10:45:35.436Z,44.65
2022-11-18T10:48:23.617Z,34.20
2022-11-18T10:51:32.443Z,47.63
2022-11-18T10:54:39.515Z,34.30
2022-11-18T10:57:23.335Z,38.95
2022-11-18T11:03:28.014Z,38.15
2022-11-18T11:06:35.461Z,34.15
2022-11-18T11:09:41.811Z,29.90
2022-11-18T11:12:49.756Z,27.77
2022-11-18T11:15:58.356Z,28.23
2022-11-18T11:18:52.871Z,26.30
2022-11-18T11:21:39.314Z,25.42
2022-11-18T11:24:30.983Z,28.35
2022-11-18T11:31:20.930Z,25.33
2022-11-18T11:34:12.974Z,27.83
2022-11-18T11:40:12.934Z,31.77
2022-11-18T11:43:25.294Z,30.42
2022-11-18T11:46:29.807Z,26.92
2022-11-18T11:52:35.024Z,28.55
2022-11-18T11:55:58.247Z,28.80
2022-11-18T11:59:07.559Z,31.42
2022-11-18T12:02:38.226Z,26.00
2022-11-18T12:09:53.621Z,26.70
2022-11-18T12:13:11.835Z,26.75
2022-11-18T12:16:40.078Z,25.73
2022-11-18T12:26:54.555Z,30.65
2022-11-18T12:30:07.537Z,29.33
2022-11-18T12:33:13.491Z,27.75
2022-11-18T12:36:25.298Z,27.85
2022-11-18T12:43:10.943Z,31.30
2022-11-18T12:46:27.431Z,31.27
2022-11-18T12:49:33.325Z,27.08
2022-11-18T12:52:39.053Z,32.67
2022-11-18T12:58:57.476Z,29.15
2022-11-18T13:01:54.015Z,28.40
2022-11-18T13:04:44.367Z,33.78
2022-11-18T13:08:10.516Z,40.38
2022-11-18T13:11:31.947Z,32.72
2022-11-18T13:14:56.367Z,35.17
2022-11-18T13:17:58.017Z,38.92
2022-11-18T13:21:30.261Z,39.25
2022-11-18T13:28:01.402Z,36.50
2022-11-18T13:31:11.420Z,39.35
2022-11-18T13:34:26.648Z,38.38
2022-11-18T13:37:56.315Z,37.70
2022-11-18T13:41:12.677Z,32.88
2022-11-18T13:44:10.432Z,39.92
2022-11-18T13:46:55.788Z,46.80
2022-11-18T13:49:58.327Z,45.75
2022-11-18T13:52:45.459Z,49.50
2022-11-18T13:55:38.608Z,42.20
2022-11-18T13:59:10.354Z,44.35
2022-11-18T14:01:44.228Z,45.45
2022-11-18T14:04:28.752Z,56.72
2022-11-18T14:07:33.104Z,55.33
2022-11-18T14:10:17.716Z,48.33
2022-11-18T14:13:11.168Z,46.17
2022-11-18T14:16:18.315Z,45.05
2022-11-18T14:18:56.309Z,50.85
2022-11-18T14:21:50.418Z,49.80
2022-11-18T14:24:38.094Z,50.75
2022-11-18T14:27:50.788Z,50.28
2022-11-18T14:30:37.296Z,45.97
2022-11-18T14:34:19.935Z,45.70
2022-11-18T14:37:22.238Z,44.10
2022-11-18T14:40:27.964Z,47.03
2022-11-18T14:43:35.608Z,49.42
2022-11-18T14:46:49.855Z,41.10
2022-11-18T14:49:55.255Z,41.05
2022-11-18T14:52:57.719Z,42.55
2022-11-18T14:55:52.385Z,42.53
2022-11-18T14:58:55.528Z,48.03
2022-11-18T15:01:53.044Z,44.78
2022-11-18T15:04:49.313Z,53.72
2022-11-18T15:07:39.476Z,53.38
2022-11-18T15:10:24.236Z,50.30
2022-11-18T15:13:11.722Z,42.03
2022-11-18T15:16:09.409Z,41.03
2022-11-18T15:18:56.585Z,48.58
2022-11-18T15:21:52.357Z,42.33
2022-11-18T15:24:34.310Z,48.03
2022-11-18T15:27:18.856Z,41.05
2022-11-18T15:30:09.049Z,41.08
2022-11-18T15:32:48.955Z,47.05
2022-11-18T15:35:32.933Z,44.28
2022-11-18T15:38:16.886Z,43.17
2022-11-18T15:40:58.218Z,43.47
2022-11-18T15:43:49.335Z,41.05
2022-11-18T15:46:36.312Z,41.63
2022-11-18T15:49:31.005Z,50.80
2022-11-18T15:52:20.008Z,44.45
2022-11-18T15:55:03.192Z,43.80
2022-11-18T15:57:47.541Z,47.25
2022-11-18T16:00:29.397Z,47.63
2022-11-18T16:03:22.311Z,47.70
2022-11-18T16:06:04.298Z,53.60
2022-11-18T16:08:59.503Z,47.42
2022-11-18T16:12:06.776Z,44.03
2022-11-18T16:15:11.304Z,43.25
2022-11-18T16:17:55.356Z,46.97
2022-11-18T16:20:59.263Z,44.20
2022-11-18T16:23:38.034Z,44.47
2022-11-18T16:26:28.308Z,43.80
2022-11-18T16:29:01.385Z,45.92
2022-11-18T16:32:00.797Z,44.33
2022-11-18T16:34:36.327Z,49.17
2022-11-18T16:37:20.306Z,49.03
2022-11-18T16:42:42.393Z,42.25
2022-11-18T16:45:26.283Z,43.13
2022-11-18T16:48:23.114Z,44.58
2022-11-18T16:51:28.135Z,42.40
2022-11-18T16:54:27.967Z,44.65
2022-11-18T16:57:11.473Z,47.67
2022-11-18T16:59:52.226Z,51.85
2022-11-18T17:02:36.483Z,67.78
2022-11-18T17:05:22.833Z,106.50
2022-11-18T17:08:11.633Z,100.32
2022-11-18T17:11:04.350Z,107.07
2022-11-18T17:13:52.058Z,71.13
2022-11-18T17:16:41.720Z,105.00
2022-11-18T17:19:35.846Z,94.43
2022-11-18T17:22:15.895Z,100.90
2022-11-18T17:25:06.367Z,87.30
2022-11-18T17:27:49.748Z,86.72
2022-11-18T17:30:43.455Z,85.05
2022-11-18T17:33:32.327Z,59.67
2022-11-18T17:36:17.304Z,64.63
2022-11-18T17:39:07.176Z,86.57
2022-11-18T17:42:01.428Z,61.42
2022-11-18T17:44:47.120Z,52.73
2022-11-18T17:47:38.363Z,53.95
2022-11-18T17:50:19.921Z,65.50
2022-11-18T17:53:05.137Z,59.78
2022-11-18T17:55:55.656Z,65.10
2022-11-18T17:58:40.687Z,54.70
2022-11-18T18:01:22.629Z,56.92
2022-11-18T18:04:06.503Z,60.53
2022-11-18T18:06:56.129Z,54.45
2022-11-18T18:09:55.393Z,73.53
2022-11-18T18:13:02.830Z,61.13
2022-11-18T18:15:52.898Z,60.55
2022-11-18T18:18:43.685Z,58.60
2022-11-18T18:21:29.519Z,64.45
2022-11-18T18:24:20.498Z,59.58
2022-11-18T18:27:06.127Z,69.57
2022-11-18T18:29:43.722Z,72.53
2022-11-18T18:32:50.902Z,70.60
2022-11-18T18:35:39.623Z,63.30
2022-11-18T18:38:28.879Z,59.00
2022-11-18T18:41:44.368Z,58.50
2022-11-18T18:44:52.009Z,72.10
2022-11-18T18:47:37.039Z,62.88
2022-11-18T18:50:28.155Z,63.45
2022-11-18T18:53:21.401Z,77.07
2022-11-18T18:56:14.327Z,76.47
2022-11-18T18:58:57.923Z,65.63
2022-11-18T19:01:41.841Z,64.90
2022-11-18T19:04:47.102Z,60.42
2022-11-18T19:07:31.378Z,64.32
2022-11-18T19:10:12.319Z,58.83
2022-11-18T19:13:00.305Z,61.97
2022-11-18T19:15:56.720Z,64.70
2022-11-18T19:18:45.310Z,59.20
2022-11-18T19:21:30.847Z,75.13
2022-11-18T19:24:42.365Z,76.95
2022-11-18T19:27:23.532Z,64.80
2022-11-18T19:30:11.361Z,75.85
2022-11-18T19:32:55.826Z,73.22
2022-11-18T19:35:37.821Z,66.43
2022-11-18T19:38:27.785Z,58.47
2022-11-18T19:41:17.639Z,65.10
2022-11-18T19:44:04.389Z,70.32
2022-11-18T19:46:49.901Z,71.20
2022-11-18T19:49:36.497Z,74.97
2022-11-18T19:52:39.014Z,66.72
2022-11-18T19:55:24.346Z,75.85
2022-11-18T19:58:16.057Z,72.35
2022-11-18T20:01:06.317Z,73.88
2022-11-18T20:03:47.467Z,77.40
2022-11-18T20:06:31.870Z,77.13
2022-11-18T20:09:25.675Z,65.32
2022-11-18T20:12:08.706Z,71.57
2022-11-18T20:15:09.951Z,68.82
2022-11-18T20:18:04.727Z,64.22
2022-11-18T20:20:59.477Z,62.90
2022-11-18T20:23:44.225Z,66.68
2022-11-18T20:26:25.317Z,59.08
2022-11-18T20:29:17.515Z,57.30
2022-11-18T20:32:00.663Z,57.67
2022-11-18T20:34:45.376Z,65.25
2022-11-18T20:37:32.015Z,66.18
2022-11-18T20:40:21.336Z,68.63
2022-11-18T20:43:14.726Z,56.25
2022-11-18T20:46:03.204Z,50.78
2022-11-18T20:48:48.455Z,45.30
2022-11-18T20:51:45.316Z,43.90
2022-11-18T20:54:29.783Z,41.53
2022-11-18T20:57:16.804Z,38.10
2022-11-18T21:00:14.267Z,34.58
2022-11-18T21:02:57.674Z,31.80
2022-11-18T21:05:41.318Z,34.78
2022-11-18T21:08:25.173Z,31.88
2022-11-18T21:11:20.211Z,30.65
2022-11-18T21:14:21.884Z,31.90
2022-11-18T21:17:12.803Z,29.92
2022-11-18T21:19:56.852Z,27.42
2022-11-18T21:22:36.284Z,29.55
2022-11-18T21:25:21.314Z,26.98
2022-11-18T21:28:11.928Z,29.98
2022-11-18T21:30:57.737Z,30.25
2022-11-18T21:33:50.594Z,25.65
2022-11-18T21:36:37.013Z,24.15
2022-11-18T21:39:30.292Z,25.75
2022-11-18T21:42:10.824Z,32.38
2022-11-18T21:44:57.735Z,22.83
2022-11-18T21:47:48.835Z,26.30
2022-11-18T21:50:35.340Z,25.35
2022-11-18T21:53:24.310Z,26.83
2022-11-18T21:56:16.858Z,25.85
2022-11-18T21:59:18.631Z,24.20
2022-11-18T22:02:02.804Z,23.80
2022-11-18T22:05:03.323Z,23.58
2022-11-18T22:07:49.301Z,21.70
2022-11-18T22:10:27.488Z,18.48
2022-11-18T22:13:14.169Z,16.02
2022-11-18T22:16:04.073Z,16.58
2022-11-18T22:19:06.688Z,14.55
2022-11-18T22:21:51.313Z,18.23
2022-11-18T22:24:37.211Z,14.95
2022-11-18T22:27:27.451Z,15.43
2022-11-18T22:30:16.350Z,15.52
2022-11-18T22:33:03.785Z,18.58
2022-11-18T22:35:57.061Z,18.10
2022-11-18T22:38:50.637Z,17.48
2022-11-18T22:41:58.181Z,21.48
2022-11-18T22:44:50.972Z,23.85
2022-11-18T22:47:39.375Z,21.77
2022-11-18T22:50:19.495Z,22.02
2022-11-18T22:53:06.033Z,22.55
2022-11-18T22:56:11.702Z,22.23
2022-11-18T22:58:58.453Z,27.48
2022-11-18T23:01:39.492Z,23.27
2022-11-18T23:04:17.455Z,25.42
2022-11-18T23:07:04.187Z,22.90
2022-11-18T23:09:48.266Z,23.45
2022-11-18T23:12:46.461Z,28.80
2022-11-18T23:15:32.591Z,28.77
2022-11-18T23:18:22.154Z,29.73
2022-11-18T23:21:12.276Z,28.48
2022-11-18T23:24:00.299Z,25.77
2022-11-18T23:26:46.109Z,27.52
2022-11-18T23:29:37.262Z,27.45
2022-11-18T23:32:16.332Z,28.52
2022-11-18T23:35:06.215Z,28.80
2022-11-18T23:37:57.929Z,32.80
2022-11-18T23:40:49.365Z,34.28
2022-11-18T23:43:31.448Z,36.03
2022-11-18T23:46:15.303Z,35.03
2022-11-18T23:48:58.919Z,28.77
2022-11-18T23:51:43.229Z,33.08
2022-11-18T23:54:27.548Z,34.65
2022-11-18T23:57:17.975Z,41.08
